Time;durP1;ratioP1;P1;durP2;ratioP2;P2;SDS_P1;SDS_P2;PMS_P1;PMS_P2;Temp;Humidity;BMP_temperature;BMP_pressure;BME280_temperature;BME280_humidity;BME280_pressure;Samples;Min_cycle;Max_cycle;Signal;HPM_P1;HPM_P2
2023/04/04 00:00:06;;;;;;;306.67;101.83;;;;;;;9.75;100.00;98259.34;347703;28;1351;-81
2023/04/04 00:00:16;;;;;;;315.70;104.00;;;;;;;9.79;100.00;98250.38;348953;28;975;-81
2023/04/04 00:00:27;;;;;;;319.48;105.07;;;;;;;9.79;100.00;98247.78;346120;28;1326;-81
2023/04/04 00:00:38;;;;;;;319.40;104.35;;;;;;;9.77;100.00;98244.41;344679;28;1229;-81
2023/04/04 00:00:50;;;;;;;311.88;103.85;;;;;;;9.77;100.00;98236.56;346227;28;1349;-81
2023/04/04 00:01:00;;;;;;;309.55;101.78;;;;;;;9.84;100.00;98248.34;343919;28;4116;-82
2023/04/04 00:01:12;;;;;;;310.77;104.17;;;;;;;9.85;100.00;98250.88;343654;28;3582;-82
2023/04/04 00:01:22;;;;;;;312.58;103.05;;;;;;;9.86;100.00;98241.25;347577;28;1418;-82
2023/04/04 00:01:33;;;;;;;313.43;104.13;;;;;;;9.89;100.00;98241.06;347643;28;1205;-81
2023/04/04 00:01:44;;;;;;;310.00;102.07;;;;;;;9.89;100.00;98235.84;347579;28;1330;-81
2023/04/04 00:01:55;;;;;;;308.27;102.32;;;;;;;9.91;100.00;98239.22;343961;28;1345;-81
2023/04/04 00:02:07;;;;;;;306.55;101.00;;;;;;;9.92;100.00;98251.34;340117;28;3936;-81
2023/04/04 00:02:17;;;;;;;305.23;102.57;;;;;;;9.93;100.00;98243.41;342149;28;1821;-81
2023/04/04 00:02:28;;;;;;;309.80;105.90;;;;;;;9.96;100.00;98250.22;345640;28;1764;-81
2023/04/04 00:02:38;;;;;;;309.15;105.93;;;;;;;9.92;100.00;98246.97;344225;28;1419;-82
2023/04/04 00:02:48;;;;;;;314.17;105.47;;;;;;;9.95;100.00;98262.44;342724;28;1533;-82
2023/04/04 00:02:59;;;;;;;309.67;102.63;;;;;;;9.92;100.00;98252.19;343724;28;1241;-82
2023/04/04 00:03:09;;;;;;;310.50;103.07;;;;;;;9.89;100.00;98251.53;342615;28;4232;-81
2023/04/04 00:03:20;;;;;;;309.67;103.03;;;;;;;9.83;100.00;98244.03;342323;28;1347;-81
2023/04/04 00:03:30;;;;;;;312.03;104.10;;;;;;;9.78;100.00;98246.09;342250;28;2446;-82
2023/04/04 00:03:41;;;;;;;311.33;102.43;;;;;;;9.81;100.00;98249.38;344222;28;1739;-82
2023/04/04 00:03:51;;;;;;;313.73;101.80;;;;;;;9.80;100.00;98241.63;338797;28;4208;-82
2023/04/04 00:04:02;;;;;;;313.95;101.10;;;;;;;9.80;100.00;98237.22;338160;29;3718;-82
2023/04/04 00:04:12;;;;;;;311.58;99.65;;;;;;;9.74;100.00;98228.91;339353;28;3764;-82
2023/04/04 00:04:23;;;;;;;311.70;100.57;;;;;;;9.76;100.00;98229.66;337337;29;1995;-82
2023/04/04 00:04:33;;;;;;;311.80;100.28;;;;;;;9.76;100.00;98230.50;335337;29;3676;-81
2023/04/04 00:04:44;;;;;;;316.20;101.47;;;;;;;9.87;100.00;98242.94;331941;29;1224;-82
2023/04/04 00:04:55;;;;;;;310.00;100.32;;;;;;;9.89;100.00;98241.06;332054;29;3435;-82
2023/04/04 00:05:08;;;;;;;307.30;100.43;;;;;;;9.93;100.00;98239.97;332411;29;3667;-81
2023/04/04 00:05:19;;;;;;;306.60;102.40;;;;;;;9.86;100.00;98222.97;331745;29;3489;-82
2023/04/04 00:05:30;;;;;;;305.20;102.18;;;;;;;9.91;100.00;98228.75;329342;29;3282;-82
2023/04/04 00:05:40;;;;;;;307.90;103.03;;;;;;;9.88;100.00;98228.94;330562;29;3639;-82
2023/04/04 00:05:50;;;;;;;306.93;101.73;;;;;;;9.90;100.00;98233.16;332501;29;3335;-82
2023/04/04 00:06:01;;;;;;;309.15;102.75;;;;;;;9.93;100.00;98232.13;331112;29;3462;-82
2023/04/04 00:06:11;;;;;;;308.80;103.37;;;;;;;9.85;100.00;98224.75;332837;29;2049;-82
2023/04/04 00:06:22;;;;;;;311.67;105.00;;;;;;;9.93;100.00;98237.34;334054;29;4500;-82
2023/04/04 00:06:32;;;;;;;309.90;103.07;;;;;;;9.92;100.00;98227.81;338179;29;1327;-82
2023/04/04 00:06:44;;;;;;;313.63;102.80;;;;;;;9.84;100.00;98227.44;330934;29;5667;-81
2023/04/04 00:06:54;;;;;;;306.15;100.70;;;;;;;9.87;100.00;98225.50;330956;29;2172;-81
2023/04/04 00:07:05;;;;;;;303.93;101.23;;;;;;;9.90;100.00;98227.06;329145;29;3285;-81
2023/04/04 00:07:15;;;;;;;300.43;100.63;;;;;;;9.90;100.00;98227.06;335685;29;1240;-81
2023/04/04 00:07:26;;;;;;;303.80;102.65;;;;;;;9.91;100.00;98228.75;333629;29;3310;-83
2023/04/04 00:07:36;;;;;;;303.83;101.50;;;;;;;9.93;100.00;98232.13;333277;29;1452;-83
2023/04/04 00:07:47;;;;;;;305.30;102.32;;;;;;;9.94;100.00;98223.34;335234;29;3277;-82
2023/04/04 00:07:57;;;;;;;307.30;103.53;;;;;;;9.98;100.00;98232.66;333488;29;2982;-83
2023/04/04 00:08:08;;;;;;;309.50;103.90;;;;;;;9.99;100.00;98231.72;329262;29;3654;-83
2023/04/04 00:08:18;;;;;;;309.40;103.80;;;;;;;9.96;100.00;98221.47;325238;30;3415;-83
2023/04/04 00:08:28;;;;;;;307.58;104.65;;;;;;;9.97;100.00;98233.59;331481;29;3275;-82
2023/04/04 00:08:39;;;;;;;308.27;104.87;;;;;;;9.93;100.00;98227.72;330728;29;2609;-82
2023/04/04 00:08:50;;;;;;;306.42;104.07;;;;;;;9.85;100.00;98214.28;326078;29;3217;-82
2023/04/04 00:09:00;;;;;;;307.58;103.57;;;;;;;9.91;100.00;98228.75;332740;29;1273;-82
2023/04/04 00:09:11;;;;;;;306.00;104.27;;;;;;;9.90;100.00;98232.31;329203;29;3252;-82
2023/04/04 00:09:22;;;;;;;305.92;102.80;;;;;;;9.89;100.00;98222.78;329524;29;2108;-82
2023/04/04 00:09:32;;;;;;;305.08;101.68;;;;;;;9.90;100.00;98227.91;326700;30;3727;-82
2023/04/04 00:09:43;;;;;;;306.10;102.13;;;;;;;9.90;100.00;98221.84;330873;29;3914;-82
2023/04/04 00:09:53;;;;;;;304.60;101.95;;;;;;;9.94;100.00;98234.63;331063;29;3543;-82
2023/04/04 00:10:04;;;;;;;305.30;103.07;;;;;;;9.94;100.00;98225.97;329775;29;3410;-82
2023/04/04 00:10:15;;;;;;;306.13;102.95;;;;;;;9.93;100.00;98221.66;320134;30;3482;-82
2023/04/04 00:10:26;;;;;;;306.00;103.90;;;;;;;9.93;100.00;98222.50;322632;30;3241;-82
2023/04/04 00:10:36;;;;;;;305.60;103.88;;;;;;;9.94;100.00;98228.56;318584;30;3142;-82
2023/04/04 00:10:46;;;;;;;304.93;105.13;;;;;;;9.91;100.00;98223.53;315214;31;3213;-82
2023/04/04 00:11:00;;;;;;;308.65;105.10;;;;;;;9.96;100.00;98221.47;316097;31;3011;-82
2023/04/04 00:11:10;;;;;;;307.73;104.13;;;;;;;9.91;100.00;98226.16;313192;31;3303;-82
2023/04/04 00:11:21;;;;;;;303.42;101.25;;;;;;;9.92;100.00;98214.75;312307;31;3362;-82
2023/04/04 00:11:31;;;;;;;302.37;101.20;;;;;;;9.89;100.00;98215.78;314817;31;3633;-82
2023/04/04 00:11:41;;;;;;;300.65;99.53;;;;;;;9.90;100.00;98219.22;312748;31;3394;-82
2023/04/04 00:11:52;;;;;;;303.23;102.50;;;;;;;9.87;100.00;98204.59;310587;31;3489;-82
2023/04/04 00:12:03;;;;;;;305.85;103.80;;;;;;;9.91;100.00;98215.69;311748;31;1355;-82
2023/04/04 00:12:13;;;;;;;308.60;105.28;;;;;;;9.89;100.00;98207.09;305092;31;3109;-82
2023/04/04 00:12:24;;;;;;;309.33;105.50;;;;;;;9.93;100.00;98213.81;303680;32;2861;-82
2023/04/04 00:12:35;;;;;;;307.88;104.63;;;;;;;9.89;100.00;98212.31;304488;32;3796;-82
2023/04/04 00:12:45;;;;;;;305.60;102.97;;;;;;;9.86;100.00;98204.66;305438;32;873;-82
2023/04/04 00:12:56;;;;;;;307.90;102.73;;;;;;;9.89;100.00;98204.50;300283;32;4661;-82
2023/04/04 00:13:07;;;;;;;311.77;103.83;;;;;;;9.92;100.00;98214.75;299523;32;4923;-82
2023/04/04 00:13:18;;;;;;;312.40;103.63;;;;;;;9.89;100.00;98204.50;301169;32;3706;-82
2023/04/04 00:13:28;;;;;;;310.63;103.67;;;;;;;9.91;100.00;98207.84;299535;32;4522;-82
2023/04/04 00:13:40;;;;;;;312.60;104.93;;;;;;;9.97;100.00;98204.84;299466;32;3739;-83
2023/04/04 00:13:51;;;;;;;311.17;105.57;;;;;;;9.99;100.00;98209.03;299006;32;3707;-82
2023/04/04 00:14:02;;;;;;;311.67;106.30;;;;;;;9.92;100.00;98204.31;297669;33;3091;-81
2023/04/04 00:14:12;;;;;;;310.05;105.07;;;;;;;9.80;100.00;98197.19;297228;32;2800;-81
2023/04/04 00:14:23;;;;;;;311.77;104.95;;;;;;;9.85;100.00;98205.59;294056;33;4053;-82
2023/04/04 00:14:33;;;;;;;313.53;105.50;;;;;;;9.84;100.00;98203.94;295082;33;1382;-80
2023/04/04 00:14:43;;;;;;;313.63;106.57;;;;;;;9.85;100.00;98206.44;291770;33;4597;-82
2023/04/04 00:14:54;;;;;;;311.40;105.43;;;;;;;9.84;100.00;98207.38;292254;33;6818;-81
2023/04/04 00:15:05;;;;;;;308.50;104.78;;;;;;;9.85;100.00;98203.00;291154;33;6776;-80
2023/04/04 00:15:16;;;;;;;311.85;103.80;;;;;;;9.78;100.00;98196.47;288418;34;959;-82
2023/04/04 00:15:26;;;;;;;315.38;104.38;;;;;;;9.82;100.00;98200.56;286197;34;6903;-82
2023/04/04 00:15:37;;;;;;;315.63;104.20;;;;;;;9.87;100.00;98206.34;283706;34;6543;-82
2023/04/04 00:15:48;;;;;;;313.15;104.60;;;;;;;9.89;100.00;98199.25;283708;34;912;-82
2023/04/04 00:15:59;;;;;;;310.52;105.25;;;;;;;9.93;100.00;98203.38;283533;34;5816;-82
2023/04/04 00:16:10;;;;;;;308.80;105.90;;;;;;;9.94;100.00;98202.44;282809;34;4884;-82
2023/04/04 00:16:21;;;;;;;308.90;105.88;;;;;;;9.96;100.00;98208.41;278829;35;5356;-82
2023/04/04 00:16:31;;;;;;;309.58;105.25;;;;;;;9.97;100.00;98197.00;274953;36;903;-82
2023/04/04 00:16:42;;;;;;;311.93;105.30;;;;;;;9.99;100.00;98205.59;274314;35;6012;-82
2023/04/04 00:16:52;;;;;;;313.27;106.07;;;;;;;10.04;100.00;98210.53;274254;35;6644;-81
2023/04/04 00:17:02;;;;;;;315.13;107.67;;;;;;;9.98;100.00;98201.28;273174;36;801;-79
2023/04/04 00:17:13;;;;;;;313.80;106.93;;;;;;;9.97;100.00;98200.44;270699;35;8875;-82
2023/04/04 00:17:23;;;;;;;314.43;107.00;;;;;;;9.91;100.00;98200.00;270470;36;10346;-81
2023/04/04 00:17:55;;;;;;;314.35;106.00;;;;;;;9.95;100.00;98204.13;269747;36;1455;-81
2023/04/04 00:19:31;;;;;;;289.44;96.12;;;;;;;9.89;100.00;98207.94;2491346;27;20482;-82
2023/04/04 00:19:41;;;;;;;304.27;100.80;;;;;;;9.84;100.00;98193.47;351702;28;1326;-80
2023/04/04 00:19:52;;;;;;;302.65;101.30;;;;;;;9.89;100.00;98210.56;350241;28;2059;-82
2023/04/04 00:20:03;;;;;;;303.07;102.53;;;;;;;9.87;100.00;98209.81;346615;28;2757;-82
2023/04/04 00:20:13;;;;;;;300.70;101.07;;;;;;;9.93;100.00;98217.28;348261;28;3589;-81
2023/04/04 00:20:24;;;;;;;307.73;102.65;;;;;;;9.88;100.00;98208.03;350434;28;1218;-81
2023/04/04 00:20:34;;;;;;;311.03;101.47;;;;;;;9.90;100.00;98204.41;349105;28;1242;-81
2023/04/04 00:20:44;;;;;;;310.08;102.13;;;;;;;9.89;100.00;98207.09;350367;28;1235;-81
2023/04/04 00:20:55;;;;;;;305.13;100.33;;;;;;;9.92;100.00;98214.75;350144;28;1366;-81
2023/04/04 00:21:05;;;;;;;302.13;100.05;;;;;;;9.83;100.00;98197.03;347892;28;2867;-81
2023/04/04 00:21:16;;;;;;;305.77;100.93;;;;;;;9.85;100.00;98209.06;349057;28;1326;-81
2023/04/04 00:21:27;;;;;;;308.17;102.60;;;;;;;9.89;100.00;98209.72;348375;28;3033;-81
2023/04/04 00:21:37;;;;;;;306.65;102.50;;;;;;;9.86;100.00;98196.84;346423;28;1275;-81
2023/04/04 00:21:49;;;;;;;312.53;104.87;;;;;;;9.91;100.00;98208.69;348927;28;1458;-81
2023/04/04 00:21:59;;;;;;;313.27;103.60;;;;;;;9.89;100.00;98199.25;352039;28;1304;-81
2023/04/04 00:22:10;;;;;;;314.77;102.20;;;;;;;9.94;100.00;98210.28;349671;28;1327;-81
2023/04/04 00:22:20;;;;;;;307.15;99.85;;;;;;;9.95;100.00;98209.34;350402;28;2813;-81
2023/04/04 00:22:31;;;;;;;309.93;100.77;;;;;;;9.90;100.00;98187.88;348618;28;3396;-81
2023/04/04 00:22:41;;;;;;;313.60;101.00;;;;;;;9.96;100.00;98200.56;348280;28;4139;-82
2023/04/04 00:22:51;;;;;;;319.13;103.07;;;;;;;9.92;100.00;98193.84;349725;28;3465;-82
2023/04/04 00:23:02;;;;;;;315.73;104.13;;;;;;;9.96;100.00;98208.41;349903;28;1975;-81
2023/04/04 00:23:12;;;;;;;313.30;106.30;;;;;;;9.92;100.00;98193.84;350128;28;1198;-81
2023/04/04 00:23:23;;;;;;;308.33;103.97;;;;;;;9.90;100.00;98196.56;348489;28;2634;-81
2023/04/04 00:23:33;;;;;;;310.93;104.87;;;;;;;9.92;100.00;98199.06;348510;28;1253;-82
2023/04/04 00:23:43;;;;;;;311.30;104.97;;;;;;;9.87;100.00;98196.75;347115;28;3550;-81
2023/04/04 00:23:54;;;;;;;313.27;105.40;;;;;;;9.88;100.00;98197.59;346741;28;1301;-81
2023/04/04 00:24:04;;;;;;;307.03;102.67;;;;;;;9.88;100.00;98198.41;348056;28;3118;-81
2023/04/04 00:24:15;;;;;;;303.50;101.85;;;;;;;9.90;100.00;98196.56;345972;28;1380;-81
2023/04/04 00:24:25;;;;;;;302.17;101.70;;;;;;;9.88;100.00;98197.59;345274;28;3106;-81
2023/04/04 00:24:36;;;;;;;308.63;103.77;;;;;;;9.93;100.00;98200.75;344678;28;3139;-81
2023/04/04 00:24:47;;;;;;;309.67;104.13;;;;;;;9.89;100.00;98194.88;342956;28;3263;-81
2023/04/04 00:24:58;;;;;;;308.80;103.32;;;;;;;9.83;100.00;98189.19;344938;28;1506;-81
2023/04/04 00:25:09;;;;;;;307.65;101.65;;;;;;;9.91;100.00;98193.00;341475;28;3009;-82
2023/04/04 00:25:20;;;;;;;307.08;100.70;;;;;;;9.93;100.00;98200.75;344725;28;1415;-82
2023/04/04 00:25:30;;;;;;;305.80;99.15;;;;;;;9.92;100.00;98193.84;342866;28;3812;-82
2023/04/04 00:25:41;;;;;;;308.63;100.47;;;;;;;9.93;100.00;98200.75;339460;29;1364;-82
2023/04/04 00:25:51;;;;;;;314.02;103.43;;;;;;;9.91;100.00;98192.16;339763;28;1159;-82
2023/04/04 00:26:02;;;;;;;314.87;103.57;;;;;;;9.90;100.00;98193.09;337613;29;826;-81
2023/04/04 00:26:12;;;;;;;312.27;101.07;;;;;;;9.91;100.00;98192.16;338620;29;1360;-81
2023/04/04 00:26:23;;;;;;;309.60;99.37;;;;;;;9.91;100.00;98186.94;341027;28;2048;-81
2023/04/04 00:26:33;;;;;;;307.92;101.93;;;;;;;9.88;100.00;98190.59;338524;29;3426;-81
2023/04/04 00:26:44;;;;;;;308.92;102.53;;;;;;;9.89;100.00;98194.03;340288;29;3540;-81
2023/04/04 00:26:54;;;;;;;316.83;103.30;;;;;;;9.86;100.00;98181.16;339985;29;3664;-81
2023/04/04 00:27:05;;;;;;;316.63;102.05;;;;;;;9.84;100.00;98191.69;342088;28;1336;-81
2023/04/04 00:27:15;;;;;;;315.43;102.90;;;;;;;9.86;100.00;98194.22;343558;28;3377;-81
2023/04/04 00:27:26;;;;;;;311.40;100.95;;;;;;;9.84;100.00;98191.69;344075;28;1386;-81
2023/04/04 00:27:36;;;;;;;308.40;99.73;;;;;;;9.81;100.00;98188.44;342529;28;4012;-81
2023/04/04 00:27:47;;;;;;;303.67;96.65;;;;;;;9.82;100.00;98182.28;339251;29;1363;-81
2023/04/04 00:27:59;;;;;;;298.70;94.90;;;;;;;9.82;100.00;98187.50;338079;29;3519;-81
2023/04/04 00:28:09;;;;;;;306.38;95.80;;;;;;;9.83;100.00;98183.97;341300;28;1691;-81
2023/04/04 00:28:20;;;;;;;315.07;99.50;;;;;;;9.86;100.00;98183.78;338651;29;3354;-81
2023/04/04 00:28:31;;;;;;;316.58;100.93;;;;;;;9.84;100.00;98180.41;337529;29;3636;-81
2023/04/04 00:28:41;;;;;;;311.02;99.50;;;;;;;9.87;100.00;98193.28;337894;29;3543;-81
2023/04/04 00:28:52;;;;;;;307.30;98.43;;;;;;;9.90;100.00;98193.09;337673;29;4019;-81
2023/04/04 00:29:02;;;;;;;305.13;99.38;;;;;;;9.85;100.00;98182.09;337862;29;1659;-81
2023/04/04 00:29:13;;;;;;;308.00;102.27;;;;;;;9.85;100.00;98182.94;335814;29;3234;-81
2023/04/04 00:29:23;;;;;;;307.42;100.68;;;;;;;9.84;100.00;98175.19;339118;29;3206;-81
2023/04/04 00:29:33;;;;;;;310.27;99.53;;;;;;;9.96;100.00;98195.34;335621;29;1182;-81
2023/04/04 00:29:44;;;;;;;307.17;96.22;;;;;;;9.95;100.00;98193.66;333104;29;1471;-81
2023/04/04 00:29:54;;;;;;;308.60;97.07;;;;;;;9.92;100.00;98193.84;333933;29;1813;-81
2023/04/04 00:30:06;;;;;;;304.55;97.43;;;;;;;9.89;100.00;98186.19;330571;29;2138;-81
2023/04/04 00:30:16;;;;;;;306.05;100.30;;;;;;;9.87;100.00;98190.69;331739;29;1407;-81
2023/04/04 00:30:27;;;;;;;304.20;101.70;;;;;;;9.85;100.00;98190.78;331622;29;2251;-81
2023/04/04 00:30:38;;;;;;;304.80;101.28;;;;;;;9.87;100.00;98190.69;332359;29;1661;-81
2023/04/04 00:30:48;;;;;;;303.30;100.22;;;;;;;9.87;100.00;98191.50;334466;29;858;-81
2023/04/04 00:30:59;;;;;;;302.60;98.72;;;;;;;9.80;100.00;98176.31;331751;29;1209;-81
2023/04/04 00:31:10;;;;;;;309.00;99.35;;;;;;;9.81;100.00;98176.22;330359;29;1407;-81
2023/04/04 00:31:20;;;;;;;311.80;100.33;;;;;;;9.85;100.00;98179.47;330225;29;1769;-81
2023/04/04 00:31:31;;;;;;;314.45;101.88;;;;;;;9.89;100.00;98188.81;323336;30;1322;-81
2023/04/04 00:31:41;;;;;;;310.05;101.03;;;;;;;9.83;100.00;98178.72;326459;30;2407;-81
2023/04/04 00:31:52;;;;;;;309.50;101.07;;;;;;;9.87;100.00;98175.84;326116;30;2028;-81
2023/04/04 00:32:02;;;;;;;308.48;100.47;;;;;;;9.92;100.00;98186.00;320967;30;1379;-81
2023/04/04 00:32:13;;;;;;;310.37;102.43;;;;;;;9.89;100.00;98178.34;322066;30;2451;-81
2023/04/04 00:32:23;;;;;;;307.63;101.05;;;;;;;9.93;100.00;98185.06;321930;30;2485;-81
2023/04/04 00:32:35;;;;;;;306.30;101.33;;;;;;;9.95;100.00;98183.22;319832;30;1368;-81
2023/04/04 00:32:45;;;;;;;302.92;100.10;;;;;;;9.98;100.00;98177.78;322245;30;1400;-81
2023/04/04 00:32:56;;;;;;;304.10;100.28;;;;;;;10.00;100.00;98188.97;322571;30;1982;-81
2023/04/04 00:33:07;;;;;;;305.40;100.57;;;;;;;9.96;100.00;98184.91;319482;30;1317;-81
2023/04/04 00:33:17;;;;;;;300.77;99.60;;;;;;;9.92;100.00;98178.16;318753;31;850;-81
2023/04/04 00:33:28;;;;;;;304.55;100.22;;;;;;;9.93;100.00;98182.47;323225;30;1735;-81
2023/04/04 00:33:38;;;;;;;307.60;100.47;;;;;;;9.90;100.00;98164.34;321182;30;2599;-81
2023/04/04 00:33:49;;;;;;;313.87;102.03;;;;;;;9.92;100.00;98168.56;318752;30;861;-81
2023/04/04 00:33:59;;;;;;;321.02;103.22;;;;;;;9.93;100.00;98172.84;323209;30;3191;-81
2023/04/04 00:34:09;;;;;;;323.67;106.37;;;;;;;9.94;100.00;98171.09;324594;30;3151;-81
2023/04/04 00:34:20;;;;;;;322.17;105.88;;;;;;;9.95;100.00;98171.00;322543;30;3028;-81
2023/04/04 00:34:30;;;;;;;317.07;106.10;;;;;;;9.95;100.00;98172.75;323283;30;1645;-81
2023/04/04 00:34:41;;;;;;;319.85;106.43;;;;;;;9.99;100.00;98188.13;325338;30;3435;-81
2023/04/04 00:34:52;;;;;;;322.10;108.15;;;;;;;9.98;100.00;98183.00;324566;30;2926;-81
2023/04/04 00:35:03;;;;;;;323.17;106.38;;;;;;;9.97;100.00;98173.47;323473;30;962;-81
2023/04/04 00:35:13;;;;;;;317.70;102.38;;;;;;;10.00;100.00;98188.97;318059;30;2536;-81
2023/04/04 00:35:24;;;;;;;319.37;103.60;;;;;;;10.00;100.00;98187.19;317311;30;3608;-81
2023/04/04 00:35:34;;;;;;;315.40;103.80;;;;;;;9.97;100.00;98182.16;318809;31;2011;-81
2023/04/04 00:35:46;;;;;;;313.70;106.87;;;;;;;9.94;100.00;98177.16;316213;31;2440;-81
2023/04/04 00:35:57;;;;;;;306.50;104.13;;;;;;;9.94;100.00;98181.53;318967;30;3326;-81
2023/04/04 00:36:07;;;;;;;306.40;104.20;;;;;;;9.96;100.00;98187.50;319404;30;4300;-81
2023/04/04 00:36:18;;;;;;;306.27;103.07;;;;;;;9.95;100.00;98178.00;315366;31;3293;-82
2023/04/04 00:36:28;;;;;;;311.17;104.80;;;;;;;9.97;100.00;98183.94;310145;31;3970;-81
2023/04/04 00:36:39;;;;;;;308.77;102.83;;;;;;;9.94;100.00;98184.16;312873;30;5244;-81
2023/04/04 00:36:49;;;;;;;308.95;102.65;;;;;;;9.86;100.00;98173.31;317266;31;796;-81
2023/04/04 00:37:00;;;;;;;305.43;101.00;;;;;;;9.93;100.00;98179.84;311864;31;5542;-82
2023/04/04 00:37:11;;;;;;;308.27;103.18;;;;;;;9.92;100.00;98184.25;317938;30;3846;-82
2023/04/04 00:37:22;;;;;;;309.17;104.45;;;;;;;9.96;100.00;98187.50;313977;31;3550;-82
2023/04/04 00:37:33;;;;;;;312.33;105.77;;;;;;;9.96;100.00;98184.91;308274;31;3850;-81
2023/04/04 00:37:43;;;;;;;312.40;105.32;;;;;;;9.96;100.00;98185.69;307124;31;3985;-81
2023/04/04 00:37:53;;;;;;;311.73;105.67;;;;;;;9.95;100.00;98185.81;306320;31;4305;-81
2023/04/04 00:38:04;;;;;;;310.08;104.80;;;;;;;9.92;100.00;98178.16;304384;32;3337;-81
2023/04/04 00:38:14;;;;;;;311.17;106.53;;;;;;;9.93;100.00;98185.06;298940;32;5751;-81
2023/04/04 00:38:25;;;;;;;308.77;104.18;;;;;;;9.91;100.00;98182.56;300909;32;6180;-81
2023/04/04 00:38:36;;;;;;;311.17;105.03;;;;;;;9.95;100.00;98193.66;301862;32;5671;-81
2023/04/04 00:38:46;;;;;;;312.15;106.00;;;;;;;9.92;100.00;98188.63;303329;32;1320;-82
2023/04/04 00:38:57;;;;;;;311.20;105.63;;;;;;;9.89;100.00;98178.34;297948;32;7130;-82
2023/04/04 00:39:08;;;;;;;312.47;105.33;;;;;;;9.93;100.00;98196.38;296014;32;8047;-82
2023/04/04 00:39:18;;;;;;;312.35;103.03;;;;;;;9.93;100.00;98187.69;298109;33;1342;-81
2023/04/04 00:39:29;;;;;;;312.73;102.80;;;;;;;9.91;100.00;98181.72;300780;32;4819;-81
2023/04/04 00:39:39;;;;;;;313.17;103.22;;;;;;;9.91;100.00;98184.34;299592;32;4497;-81
2023/04/04 00:39:50;;;;;;;312.30;105.30;;;;;;;9.88;100.00;98182.75;297780;33;3693;-81
2023/04/04 00:40:02;;;;;;;313.98;106.10;;;;;;;9.89;100.00;98188.81;292067;33;1365;-81
2023/04/04 00:40:13;;;;;;;310.77;104.13;;;;;;;9.87;100.00;98185.44;291466;33;7380;-81
2023/04/04 00:40:23;;;;;;;308.70;101.95;;;;;;;9.84;100.00;98185.63;289797;33;6556;-81
2023/04/04 00:40:45;;;;;;;302.95;100.97;;;;;;;9.84;100.00;98191.69;289441;34;1295;-81
2023/04/04 00:40:55;;;;;;;309.60;101.72;;;;;;;9.85;100.00;98188.16;287313;34;8309;-80
2023/04/04 00:42:45;;;;;;;292.34;92.59;;;;;;;9.94;100.00;98186.75;2503028;27;20489;-81
2023/04/04 00:42:56;;;;;;;305.83;98.03;;;;;;;9.92;100.00;98188.63;353069;28;1339;-81
2023/04/04 00:43:06;;;;;;;309.80;102.22;;;;;;;9.92;100.00;98183.41;349108;28;1243;-81
2023/04/04 00:43:17;;;;;;;310.33;103.50;;;;;;;9.91;100.00;98197.41;349276;28;887;-81
2023/04/04 00:43:28;;;;;;;304.42;100.30;;;;;;;9.86;100.00;98184.59;347647;28;848;-81
2023/04/04 00:43:38;;;;;;;305.77;98.00;;;;;;;9.91;100.00;98189.56;347939;28;805;-81
2023/04/04 00:43:49;;;;;;;305.52;98.18;;;;;;;9.84;100.00;98185.63;345695;28;3216;-81
2023/04/04 00:43:59;;;;;;;309.53;99.23;;;;;;;9.91;100.00;98198.25;346391;28;1232;-81
2023/04/04 00:44:10;;;;;;;310.75;101.93;;;;;;;9.93;100.00;98192.91;345866;28;3327;-81
2023/04/04 00:44:20;;;;;;;313.98;103.55;;;;;;;9.93;100.00;98204.22;347612;28;1296;-81
2023/04/04 00:44:31;;;;;;;315.73;105.30;;;;;;;9.92;100.00;98191.25;347709;28;1354;-81
2023/04/04 00:44:41;;;;;;;310.65;102.35;;;;;;;9.90;100.00;98193.09;348589;28;1247;-81
2023/04/04 00:44:52;;;;;;;312.47;103.30;;;;;;;9.86;100.00;98189.84;346512;28;3600;-81
2023/04/04 00:45:03;;;;;;;310.90;103.35;;;;;;;9.94;100.00;98195.44;348072;28;1893;-81
2023/04/04 00:45:13;;;;;;;315.13;105.97;;;;;;;9.96;100.00;98200.56;347438;28;1927;-81
2023/04/04 00:45:23;;;;;;;316.23;107.33;;;;;;;9.95;100.00;98204.13;347547;28;3259;-81
2023/04/04 00:45:34;;;;;;;318.90;107.07;;;;;;;9.99;100.00;98206.41;349564;28;1290;-81
2023/04/04 00:45:45;;;;;;;315.98;105.97;;;;;;;10.02;100.00;98195.78;348777;28;3503;-81
2023/04/04 00:45:55;;;;;;;313.38;105.65;;;;;;;10.02;100.00;98200.16;348199;28;1317;-80
2023/04/04 00:46:06;;;;;;;312.43;106.67;;;;;;;10.00;100.00;98204.66;347769;28;1428;-82
2023/04/04 00:46:17;;;;;;;310.70;105.10;;;;;;;9.96;100.00;98204.00;346858;28;3424;-81
2023/04/04 00:46:33;;;;;;;310.70;102.50;;;;;;;10.00;100.00;98202.03;348696;28;1287;-81
2023/04/04 00:46:51;;;;;;;308.80;102.50;;;;;;;9.98;100.00;98199.50;346346;28;1408;-81
2023/04/04 00:47:12;;;;;;;307.23;103.20;;;;;;;9.94;100.00;98197.22;344406;28;3166;-80
2023/04/04 00:47:25;;;;;;;303.83;102.28;;;;;;;9.98;100.00;98199.50;342676;28;1389;-81
2023/04/04 00:47:35;;;;;;;306.88;104.53;;;;;;;10.00;100.00;98197.66;342321;28;3065;-81
2023/04/04 00:47:46;;;;;;;310.77;104.97;;;;;;;9.96;100.00;98192.72;346281;28;1547;-81
2023/04/04 00:47:57;;;;;;;309.93;106.03;;;;;;;9.92;100.00;98191.25;343302;28;3849;-81
2023/04/04 00:48:08;;;;;;;309.58;106.13;;;;;;;9.99;100.00;98193.34;345418;28;910;-81
2023/04/04 00:48:19;;;;;;;306.92;104.10;;;;;;;10.01;100.00;98193.25;343891;28;3021;-81
2023/04/04 00:48:30;;;;;;;308.70;104.20;;;;;;;10.02;100.00;98197.56;343644;28;1155;-81
2023/04/04 00:48:41;;;;;;;308.23;104.70;;;;;;;10.04;100.00;98192.22;341540;28;3674;-81
2023/04/04 00:48:52;;;;;;;306.50;104.68;;;;;;;10.04;100.00;98190.47;344003;28;1385;-81
2023/04/04 00:49:02;;;;;;;305.85;104.63;;;;;;;10.04;100.00;98187.00;340617;28;3490;-81
2023/04/04 00:49:12;;;;;;;307.13;103.77;;;;;;;10.04;100.00;98197.47;343058;28;1316;-81
2023/04/04 00:49:23;;;;;;;309.77;105.10;;;;;;;9.96;100.00;98174.44;343531;28;3479;-81
2023/04/04 00:49:33;;;;;;;310.15;105.05;;;;;;;10.03;100.00;98188.78;342168;28;1289;-81
2023/04/04 00:49:45;;;;;;;312.13;107.30;;;;;;;10.01;100.00;98193.25;341199;28;3101;-81
2023/04/04 00:49:55;;;;;;;314.25;107.65;;;;;;;9.98;100.00;98185.59;340882;29;1325;-80
2023/04/04 00:50:06;;;;;;;316.33;107.27;;;;;;;9.98;100.00;98193.44;337850;29;3445;-80
2023/04/04 00:50:17;;;;;;;311.25;105.00;;;;;;;9.92;100.00;98179.00;336719;29;3591;-80
2023/04/04 00:50:28;;;;;;;311.40;104.80;;;;;;;9.99;100.00;98185.50;340570;28;2069;-80
2023/04/04 00:50:38;;;;;;;310.40;104.40;;;;;;;9.97;100.00;98182.16;339862;29;1311;-80
2023/04/04 00:50:48;;;;;;;313.20;105.33;;;;;;;10.02;100.00;98187.09;335985;29;3320;-80
2023/04/04 00:50:59;;;;;;;311.60;105.35;;;;;;;10.00;100.00;98179.34;337522;29;2057;-80
2023/04/04 00:51:09;;;;;;;317.63;108.17;;;;;;;10.01;100.00;98174.97;338958;29;2995;-80
2023/04/04 00:51:20;;;;;;;319.45;108.78;;;;;;;9.99;100.00;98180.28;337928;29;4244;-80
2023/04/04 00:51:31;;;;;;;316.57;108.43;;;;;;;10.04;100.00;98187.00;333605;29;2906;-80
2023/04/04 00:51:41;;;;;;;308.60;106.55;;;;;;;10.06;100.00;98191.22;333111;29;3170;-80
2023/04/04 00:51:51;;;;;;;308.65;107.35;;;;;;;10.05;100.00;98189.53;334669;29;3053;-80
2023/04/04 00:52:02;;;;;;;309.53;107.90;;;;;;;9.97;100.00;98176.09;337534;29;3614;-80
2023/04/04 00:52:13;;;;;;;312.23;108.40;;;;;;;10.09;100.00;98184.94;340565;29;1432;-80
2023/04/04 00:52:24;;;;;;;309.90;106.05;;;;;;;10.10;100.00;98182.25;337374;29;3160;-80
2023/04/04 00:52:34;;;;;;;308.17;105.73;;;;;;;10.13;100.00;98187.28;337653;29;3539;-81
2023/04/04 00:52:45;;;;;;;304.92;104.38;;;;;;;10.13;100.00;98189.91;340641;29;2067;-81
2023/04/04 00:52:55;;;;;;;306.20;106.07;;;;;;;10.14;100.00;98186.34;337176;29;3253;-81